Time;durP1;ratioP1;P1;durP2;ratioP2;P2;SDS_P1;SDS_P2;PMS_P1;PMS_P2;Temp;Humidity;BMP_temperature;BMP_pressure;BME280_temperature;BME280_humidity;BME280_pressure;Samples;Min_cycle;Max_cycle;Signal;HPM_P1;HPM_P2
2022/12/22 03:27:23;;;;;;;7.55;6.07;;;;;;;8.22;100.00;100115.47;5028399;28;20118;-79
2022/12/22 03:29:48;;;;;;;9.10;6.53;;;;;;;8.23;100.00;100124.94;5030243;28;20056;-79
2022/12/22 03:32:14;;;;;;;9.25;6.43;;;;;;;8.22;100.00;100118.06;5034692;28;20073;-79
2022/12/22 03:34:39;;;;;;;7.72;6.00;;;;;;;8.19;100.00;100116.41;5029543;28;20041;-79
2022/12/22 03:37:04;;;;;;;8.60;6.38;;;;;;;8.19;100.00;100113.81;5026180;28;20388;-79
2022/12/22 03:39:30;;;;;;;8.52;6.25;;;;;;;8.18;100.00;100109.53;5029826;28;20097;-79
2022/12/22 03:47:23;;;;;;;7.35;5.53;;;;;;;8.14;100.00;100103.56;5043647;28;20043;-79
2022/12/22 03:49:48;;;;;;;7.20;5.40;;;;;;;8.13;100.00;100103.59;5012259;28;20033;-79
2022/12/22 03:52:13;;;;;;;6.70;4.88;;;;;;;8.13;100.00;100099.25;5036134;28;20488;-79
2022/12/22 03:54:38;;;;;;;7.05;5.22;;;;;;;8.14;100.00;100092.34;5029263;28;20108;-79
2022/12/22 03:57:04;;;;;;;6.80;5.20;;;;;;;8.12;100.00;100096.72;5020814;28;20032;-79
2022/12/22 03:59:29;;;;;;;7.60;5.50;;;;;;;8.09;100.00;100092.50;5032255;28;20029;-79
2022/12/22 04:01:54;;;;;;;7.10;5.43;;;;;;;8.05;100.00;100086.53;5026390;28;20124;-79
2022/12/22 04:04:23;;;;;;;8.25;5.88;;;;;;;8.03;100.00;100083.13;5027167;28;20365;-79
2022/12/22 04:06:49;;;;;;;7.20;5.45;;;;;;;8.01;100.00;100087.53;5028100;28;22199;-79
2022/12/22 04:09:14;;;;;;;7.65;5.10;;;;;;;8.00;100.00;100087.53;5037351;28;20040;-79
2022/12/22 04:14:24;;;;;;;7.20;5.40;;;;;;;7.97;100.00;100078.13;5035671;28;20553;-79
2022/12/22 04:16:49;;;;;;;7.95;5.10;;;;;;;7.97;100.00;100080.72;5034610;28;20022;-79
2022/12/22 04:19:15;;;;;;;7.30;5.38;;;;;;;7.97;100.00;100074.66;5012475;28;20478;-79
2022/12/22 04:21:41;;;;;;;6.57;5.32;;;;;;;7.95;100.00;100069.53;5034018;28;20064;-79
2022/12/22 04:24:07;;;;;;;6.70;5.07;;;;;;;7.95;100.00;100066.97;5051798;28;20054;-79
2022/12/22 04:26:32;;;;;;;6.60;5.05;;;;;;;7.96;100.00;100067.78;5027567;28;20250;-79
2022/12/22 04:28:57;;;;;;;11.93;6.03;;;;;;;7.95;100.00;100059.19;5040348;28;20041;-79
2022/12/22 04:31:23;;;;;;;8.48;6.32;;;;;;;7.96;100.00;100057.44;5034025;28;20044;-79
2022/12/22 04:33:49;;;;;;;11.23;6.15;;;;;;;7.95;100.00;100072.13;5038858;28;20021;-79
2022/12/22 04:36:15;;;;;;;16.88;6.25;;;;;;;7.95;100.00;100069.53;5043987;28;20113;-79
2022/12/22 04:38:40;;;;;;;15.45;5.65;;;;;;;7.95;100.00;100073.84;5022285;28;20073;-80
2022/12/22 04:41:07;;;;;;;10.95;5.82;;;;;;;7.95;100.00;100081.63;5034422;28;20041;-79
2022/12/22 04:43:33;;;;;;;16.45;6.05;;;;;;;7.96;100.00;100079.00;5044706;28;20033;-79
2022/12/22 04:45:58;;;;;;;7.90;6.22;;;;;;;7.96;100.00;100086.78;5014839;28;20037;-80
2022/12/22 04:48:25;;;;;;;8.63;6.28;;;;;;;8.00;100.00;100091.00;5030367;28;20029;-80
2022/12/22 04:50:55;;;;;;;11.75;8.60;;;;;;;8.02;100.00;100097.00;5029750;28;20037;-79
2022/12/22 04:53:21;;;;;;;10.73;8.35;;;;;;;8.04;100.00;100100.34;5030677;28;20033;-79
2022/12/22 04:55:48;;;;;;;12.18;7.82;;;;;;;8.07;100.00;100096.84;5031321;28;20052;-80
2022/12/22 04:58:14;;;;;;;11.18;7.70;;;;;;;8.08;100.00;100095.97;5033038;28;20033;-80
2022/12/22 05:00:39;;;;;;;12.05;7.82;;;;;;;8.09;100.00;100099.41;5031099;28;20036;-80
2022/12/22 05:03:04;;;;;;;15.52;9.27;;;;;;;8.10;100.00;100093.31;5012448;28;20033;-79
2022/12/22 05:05:29;;;;;;;11.90;8.20;;;;;;;8.11;100.00;100089.84;5024095;28;20033;-80
2022/12/22 05:07:55;;;;;;;12.55;8.02;;;;;;;8.10;100.00;100072.59;5032055;28;20435;-80
2022/12/22 05:10:20;;;;;;;13.20;7.60;;;;;;;8.10;100.00;100077.78;5028219;28;20105;-79
2022/12/22 05:12:54;;;;;;;9.98;7.22;;;;;;;8.08;100.00;100075.25;5031126;28;20037;-79
2022/12/22 05:15:41;;;;;;;9.52;7.05;;;;;;;8.05;100.00;100073.56;5031416;28;20530;-80
2022/12/22 05:18:06;;;;;;;9.57;6.47;;;;;;;8.04;100.00;100087.41;5038265;28;20025;-80
2022/12/22 05:20:33;;;;;;;12.70;7.05;;;;;;;8.03;100.00;100093.47;5037793;28;20395;-79
2022/12/22 05:22:58;;;;;;;8.57;6.35;;;;;;;8.03;100.00;100085.72;5024564;28;20030;-79
2022/12/22 05:25:24;;;;;;;8.77;6.65;;;;;;;8.02;100.00;100086.63;5031598;28;20022;-79
2022/12/22 05:27:50;;;;;;;8.98;6.53;;;;;;;7.99;100.00;100081.53;5029272;28;20100;-79
2022/12/22 05:30:17;;;;;;;10.05;6.80;;;;;;;7.96;100.00;100086.78;5034677;28;20025;-79
2022/12/22 05:32:42;;;;;;;11.30;6.13;;;;;;;7.93;100.00;100089.44;5020221;28;20020;-79
2022/12/22 05:35:08;;;;;;;24.77;6.75;;;;;;;7.89;100.00;100086.09;5022762;28;20052;-79
2022/12/22 05:37:34;;;;;;;36.38;6.95;;;;;;;7.87;100.00;100089.59;5028825;28;20421;-79
2022/12/22 05:39:59;;;;;;;28.63;6.35;;;;;;;7.86;100.00;100095.66;5027973;28;20026;-80
2022/12/22 05:42:36;;;;;;;18.02;5.88;;;;;;;7.85;100.00;100099.19;5026760;28;20434;-79
2022/12/22 05:45:04;;;;;;;12.93;5.90;;;;;;;7.84;100.00;100100.91;5028098;28;20519;-80
2022/12/22 05:47:30;;;;;;;19.58;6.10;;;;;;;7.86;100.00;100100.84;5031848;28;20026;-78
2022/12/22 05:49:55;;;;;;;7.82;5.55;;;;;;;7.86;100.00;100100.84;5024247;28;20075;-79
2022/12/22 05:52:20;;;;;;;10.23;5.85;;;;;;;7.86;100.00;100108.63;5029659;28;20468;-79
2022/12/22 05:54:45;;;;;;;10.45;6.10;;;;;;;7.88;100.00;100117.19;5028918;28;20028;-79
2022/12/22 05:57:11;;;;;;;11.73;6.18;;;;;;;7.88;100.00;100119.78;5028006;28;20021;-78
2022/12/22 05:59:36;;;;;;;17.80;6.85;;;;;;;7.88;100.00;100117.19;5027734;28;20365;-79
2022/12/22 06:02:01;;;;;;;12.38;6.30;;;;;;;7.91;100.00;100122.31;5023389;28;20061;-79
2022/12/22 06:04:27;;;;;;;22.55;6.78;;;;;;;7.92;100.00;100120.59;5025404;28;20014;-79
2022/12/22 06:06:52;;;;;;;19.10;6.90;;;;;;;7.92;100.00;100129.19;5028965;28;20375;-80
2022/12/22 06:09:17;;;;;;;25.25;7.05;;;;;;;7.94;100.00;100142.13;5030751;28;20083;-86
2022/12/22 06:11:42;;;;;;;15.70;6.68;;;;;;;7.95;100.00;100147.25;5028833;28;20030;-79
2022/12/22 06:14:08;;;;;;;19.65;6.70;;;;;;;7.95;100.00;100147.25;5030104;28;20039;-77
2022/12/22 06:16:33;;;;;;;12.93;6.65;;;;;;;7.97;100.00;100155.84;5030747;28;20488;-80
2022/12/22 06:18:58;;;;;;;12.07;6.40;;;;;;;7.98;100.00;100157.53;5032904;28;20032;-80
2022/12/22 06:21:24;;;;;;;10.35;6.35;;;;;;;8.00;100.00;100160.06;5031607;28;20032;-80
2022/12/22 06:23:49;;;;;;;11.38;6.68;;;;;;;8.01;100.00;100161.78;5032110;28;20032;-80
2022/12/22 06:26:15;;;;;;;11.23;6.55;;;;;;;8.01;100.00;100165.22;5032671;28;20100;-80
2022/12/22 06:28:41;;;;;;;10.82;6.15;;;;;;;8.02;100.00;100172.13;5032586;28;20091;-80
2022/12/22 06:31:06;;;;;;;11.65;6.32;;;;;;;8.04;100.00;100172.91;5032415;28;20472;-80
2022/12/22 06:33:33;;;;;;;11.70;6.95;;;;;;;8.04;100.00;100172.91;5031204;28;20032;-80
2022/12/22 06:36:03;;;;;;;12.98;6.70;;;;;;;8.07;100.00;100181.47;5027489;28;20021;-80
2022/12/22 06:38:28;;;;;;;12.65;6.70;;;;;;;8.07;100.00;100182.34;5024918;28;20057;-80
2022/12/22 06:40:53;;;;;;;11.65;6.63;;;;;;;8.08;100.00;100193.53;5022496;28;20061;-80
2022/12/22 06:43:19;;;;;;;11.27;6.40;;;;;;;8.09;100.00;100196.13;5013214;28;20385;-80
2022/12/22 06:45:44;;;;;;;11.15;6.55;;;;;;;8.11;100.00;100198.66;5024864;28;20433;-80
2022/12/22 06:48:11;;;;;;;12.88;6.72;;;;;;;8.12;100.00;100205.53;5032753;28;20060;-80
2022/12/22 06:50:36;;;;;;;14.85;7.45;;;;;;;8.12;100.00;100213.31;5031182;28;20118;-80
2022/12/22 06:53:03;;;;;;;12.20;7.25;;;;;;;8.11;100.00;100222.84;5030283;28;20445;-80
2022/12/22 06:55:28;;;;;;;13.38;7.32;;;;;;;8.12;100.00;100215.91;5029979;28;20128;-80
2022/12/22 06:57:54;;;;;;;14.48;7.53;;;;;;;8.12;100.00;100226.25;5032306;28;20152;-80
2022/12/22 07:00:19;;;;;;;13.80;7.72;;;;;;;8.11;100.00;100221.97;5031417;28;20032;-80
2022/12/22 07:02:45;;;;;;;16.17;8.88;;;;;;;8.11;100.00;100227.16;5018700;28;20029;-79
2022/12/22 07:05:10;;;;;;;18.05;9.35;;;;;;;8.11;100.00;100229.75;5015813;28;20037;-80
2022/12/22 07:07:35;;;;;;;18.15;9.43;;;;;;;8.10;100.00;100243.59;5032125;28;20115;-80
2022/12/22 07:10:00;;;;;;;18.25;9.50;;;;;;;8.09;100.00;100245.34;5030741;28;20473;-80
2022/12/22 07:12:26;;;;;;;19.60;9.85;;;;;;;8.08;100.00;100250.53;5032021;28;20033;-80
2022/12/22 07:14:51;;;;;;;20.10;9.70;;;;;;;8.07;100.00;100257.47;5031932;28;20025;-80
2022/12/22 07:17:16;;;;;;;22.67;10.85;;;;;;;8.05;100.00;100262.69;5025843;28;20029;-80
2022/12/22 07:19:42;;;;;;;22.90;11.00;;;;;;;8.05;100.00;100273.03;5026096;28;20029;-80
2022/12/22 07:22:07;;;;;;;23.52;11.25;;;;;;;8.04;100.00;100276.50;5025692;28;20040;-79
2022/12/22 07:24:33;;;;;;;24.75;11.88;;;;;;;8.03;100.00;100276.56;5014954;28;20105;-79
2022/12/22 07:26:59;;;;;;;25.83;11.90;;;;;;;8.00;100.00;100274.03;5027165;28;20037;-80
2022/12/22 07:29:24;;;;;;;22.35;10.18;;;;;;;8.00;100.00;100269.72;5030250;28;20078;-80
2022/12/22 07:31:50;;;;;;;26.00;11.80;;;;;;;7.98;100.00;100266.31;5031487;28;20065;-79
2022/12/22 07:34:15;;;;;;;24.77;11.57;;;;;;;7.97;100.00;100267.22;5031985;28;20030;-79
2022/12/22 07:36:40;;;;;;;25.98;11.45;;;;;;;7.95;100.00;100268.97;5027032;28;20459;-79
2022/12/22 07:39:06;;;;;;;24.63;10.88;;;;;;;7.94;100.00;100275.03;5029969;28;20491;-79
2022/12/22 07:44:15;;;;;;;25.15;11.13;;;;;;;7.89;100.00;100262.22;5019183;28;20094;-79
2022/12/22 07:46:41;;;;;;;25.77;11.50;;;;;;;7.90;100.00;100270.81;5027128;28;20502;-79
2022/12/22 07:51:51;;;;;;;29.38;11.85;;;;;;;7.91;100.00;100288.06;5012961;28;20037;-79
2022/12/22 07:54:17;;;;;;;27.60;11.55;;;;;;;7.89;100.00;100288.13;5011300;28;20034;-80
2022/12/22 07:56:44;;;;;;;28.08;11.40;;;;;;;7.88;100.00;100303.66;5001524;28;20049;-79
2022/12/22 07:59:10;;;;;;;30.92;12.80;;;;;;;7.87;100.00;100312.31;5031725;28;20069;-80
2022/12/22 08:01:35;;;;;;;30.48;12.43;;;;;;;7.86;100.00;100320.97;5027982;28;20388;-79
2022/12/22 08:04:00;;;;;;;28.40;12.13;;;;;;;7.87;100.00;100333.03;5035960;28;20104;-80
2022/12/22 08:06:26;;;;;;;31.85;12.73;;;;;;;7.86;100.00;100328.75;5035134;28;20086;-80
2022/12/22 08:08:51;;;;;;;28.60;11.93;;;;;;;7.85;100.00;100337.44;5035030;28;20037;-80
2022/12/22 08:11:17;;;;;;;32.00;13.20;;;;;;;7.84;100.00;100346.94;5033875;28;20168;-79
2022/12/22 08:13:42;;;;;;;34.95;13.77;;;;;;;7.84;100.00;100351.28;5035431;28;20033;-79
2022/12/22 08:16:10;;;;;;;35.70;15.05;;;;;;;7.83;100.00;100365.09;5035705;28;20381;-79
2022/12/22 08:18:37;;;;;;;34.05;14.27;;;;;;;7.80;100.00;100371.19;5034815;28;20033;-80
2022/12/22 08:21:03;;;;;;;34.35;14.73;;;;;;;7.75;100.00;100381.66;5034252;28;20029;-80
2022/12/22 08:23:29;;;;;;;33.28;14.20;;;;;;;7.75;100.00;100379.06;5020324;28;20033;-80
2022/12/22 08:26:01;;;;;;;36.30;14.80;;;;;;;7.77;100.00;100385.94;5015873;28;20028;-80
2022/12/22 08:28:27;;;;;;;35.45;14.10;;;;;;;7.77;100.00;100380.75;5015939;28;20040;-80
2022/12/22 08:30:53;;;;;;;33.95;13.85;;;;;;;7.77;100.00;100383.34;5025002;28;20029;-80
2022/12/22 08:33:18;;;;;;;34.60;13.73;;;;;;;7.73;100.00;100383.41;5031106;28;20156;-80
2022/12/22 08:35:44;;;;;;;32.22;12.18;;;;;;;7.73;100.00;100380.81;5015725;28;20030;-80
2022/12/22 08:38:11;;;;;;;32.03;12.98;;;;;;;7.73;100.00;100382.56;5015777;28;20061;-79
2022/12/22 08:40:37;;;;;;;30.15;12.18;;;;;;;7.73;100.00;100396.34;5015696;28;20109;-79
2022/12/22 08:43:08;;;;;;;30.30;12.65;;;;;;;7.76;100.00;100408.41;5024662;28;20044;-79
2022/12/22 08:45:33;;;;;;;30.20;12.27;;;;;;;7.73;100.00;100417.06;5034344;28;20040;-80
2022/12/22 08:47:58;;;;;;;29.63;12.27;;;;;;;7.74;100.00;100429.13;5026981;28;20029;-80
2022/12/22 08:50:23;;;;;;;28.48;12.25;;;;;;;7.74;100.00;100431.72;5034765;28;20030;-80
2022/12/22 08:52:49;;;;;;;31.40;12.48;;;;;;;7.73;100.00;100435.19;5033240;28;20029;-79
2022/12/22 08:55:14;;;;;;;29.65;12.32;;;;;;;7.72;100.00;100435.25;5034412;28;20581;-80
2022/12/22 08:57:39;;;;;;;24.35;10.52;;;;;;;7.73;100.00;100440.38;5030572;28;20026;-79
2022/12/22 09:00:09;;;;;;;27.70;11.52;;;;;;;7.73;100.00;100448.16;5034801;28;20087;-80
2022/12/22 09:02:35;;;;;;;28.55;11.35;;;;;;;7.74;100.00;100465.38;5008235;28;20030;-80
2022/12/22 09:05:00;;;;;;;29.52;11.27;;;;;;;7.77;100.00;100468.81;5025547;28;20078;-80
2022/12/22 09:07:26;;;;;;;28.50;11.32;;;;;;;7.78;100.00;100465.34;5026183;28;20108;-80
2022/12/22 09:09:51;;;;;;;27.45;11.48;;;;;;;7.79;100.00;100467.03;5032841;28;20460;-80
2022/12/22 09:12:17;;;;;;;24.90;10.77;;;;;;;7.80;100.00;100468.75;5012009;28;20102;-80
2022/12/22 09:14:42;;;;;;;24.95;10.85;;;;;;;7.81;100.00;100475.63;5022358;28;20040;-80
2022/12/22 09:17:08;;;;;;;27.17;10.85;;;;;;;7.79;100.00;100480.81;5015130;28;20036;-80
2022/12/22 09:19:33;;;;;;;28.30;10.43;;;;;;;7.78;100.00;100480.88;5022545;28;20036;-80
2022/12/22 09:21:59;;;;;;;25.60;11.18;;;;;;;7.76;100.00;100491.28;5024268;28;20053;-80
2022/12/22 09:24:24;;;;;;;27.52;11.13;;;;;;;7.73;100.00;100494.75;5027890;28;20032;-79
2022/12/22 09:26:49;;;;;;;27.92;11.60;;;;;;;7.70;100.00;100487.03;5014675;28;20030;-80
2022/12/22 09:29:15;;;;;;;24.48;10.32;;;;;;;7.67;100.00;100487.13;5029088;28;20116;-80
2022/12/22 09:31:41;;;;;;;27.40;9.70;;;;;;;7.67;100.00;100492.31;5032684;28;20029;-80
2022/12/22 09:34:07;;;;;;;21.92;10.15;;;;;;;7.67;100.00;100494.03;5030869;28;20033;-80
2022/12/22 09:36:32;;;;;;;25.65;9.95;;;;;;;7.67;100.00;100494.03;5032550;28;20040;-80
2022/12/22 09:39:03;;;;;;;25.98;10.60;;;;;;;7.68;100.00;100495.72;5031092;28;20033;-80
2022/12/22 09:41:40;;;;;;;23.02;10.23;;;;;;;7.69;100.00;100500.88;5031613;28;20427;-80
2022/12/22 09:44:21;;;;;;;24.17;10.27;;;;;;;7.70;100.00;100504.31;5032126;28;20033;-80
2022/12/22 09:46:46;;;;;;;25.67;11.10;;;;;;;7.71;100.00;100506.88;5036652;28;20452;-79
2022/12/22 09:49:15;;;;;;;24.55;11.45;;;;;;;7.72;100.00;100502.56;5029920;28;20095;-80
2022/12/22 09:51:43;;;;;;;27.45;11.45;;;;;;;7.72;100.00;100515.50;5040324;28;20083;-79
2022/12/22 09:54:11;;;;;;;29.02;11.93;;;;;;;7.73;100.00;100519.81;5030417;28;20065;-80
2022/12/22 09:56:36;;;;;;;27.83;11.57;;;;;;;7.73;100.00;100520.66;5027727;28;20056;-80
2022/12/22 09:59:14;;;;;;;30.10;11.75;;;;;;;7.73;100.00;100515.47;5034670;28;20103;-80
2022/12/22 10:01:54;;;;;;;27.88;11.50;;;;;;;7.74;100.00;100516.34;5036843;28;20036;-79
2022/12/22 10:04:43;;;;;;;28.48;11.57;;;;;;;7.73;100.00;100520.66;5040287;28;20077;-80
2022/12/22 10:07:23;;;;;;;28.20;10.80;;;;;;;7.71;100.00;100522.41;5024826;28;20034;-80
2022/12/22 10:09:48;;;;;;;30.75;11.73;;;;;;;7.70;100.00;100523.28;5031944;28;20021;-80
2022/12/22 10:12:18;;;;;;;29.40;11.68;;;;;;;7.70;100.00;100520.69;5030619;28;20114;-80
2022/12/22 10:14:46;;;;;;;27.25;11.15;;;;;;;7.72;100.00;100529.28;5032927;28;20440;-79
2022/12/22 10:17:19;;;;;;;27.27;12.05;;;;;;;7.76;100.00;100530.13;5031497;28;20041;-80
2022/12/22 10:19:46;;;;;;;26.95;12.35;;;;;;;7.78;100.00;100530.91;5025897;28;20076;-80
2022/12/22 10:22:30;;;;;;;28.98;11.88;;;;;;;7.84;100.00;100541.16;5016178;28;20033;-81
2022/12/22 10:24:59;;;;;;;28.92;12.60;;;;;;;7.85;100.00;100531.69;5027267;28;20111;-80
2022/12/22 10:27:30;;;;;;;30.48;13.18;;;;;;;7.86;100.00;100531.63;5042381;28;20065;-80
2022/12/22 10:30:22;;;;;;;29.02;12.48;;;;;;;7.92;100.00;100546.19;5021129;28;20036;-80
2022/12/22 10:33:04;;;;;;;34.83;12.32;;;;;;;7.98;100.00;100559.03;5029305;28;20538;-80
2022/12/22 10:35:52;;;;;;;31.05;13.40;;;;;;;7.99;100.00;100546.94;5038980;28;20048;-80
2022/12/22 10:38:26;;;;;;;33.15;13.88;;;;;;;8.03;100.00;100543.41;5027713;28;20087;-79
2022/12/22 10:40:55;;;;;;;31.58;14.00;;;;;;;8.08;100.00;100543.28;5030777;28;20037;-80
2022/12/22 10:43:28;;;;;;;31.50;14.40;;;;;;;8.11;100.00;100545.84;5026115;28;20029;-80
2022/12/22 10:45:55;;;;;;;29.25;13.77;;;;;;;8.13;100.00;100549.25;5026686;28;20056;-80
2022/12/22 10:48:26;;;;;;;30.90;13.68;;;;;;;8.13;100.00;100550.09;5029132;28;20496;-80
2022/12/22 10:50:52;;;;;;;29.92;13.77;;;;;;;8.13;99.61;100557.03;5030055;28;20036;-80
2022/12/22 10:53:18;;;;;;;26.92;13.18;;;;;;;8.12;98.77;100555.31;5029647;28;20044;-80
2022/12/22 10:55:43;;;;;;;23.38;11.38;;;;;;;8.10;98.74;100549.31;5028702;28;20095;-81
2022/12/22 10:58:08;;;;;;;31.02;12.07;;;;;;;8.05;98.35;100552.00;5031094;28;20021;-80
2022/12/22 11:00:35;;;;;;;24.35;11.57;;;;;;;8.03;98.16;100554.59;5021739;28;20152;-80
2022/12/22 11:03:01;;;;;;;20.02;10.50;;;;;;;8.01;98.17;100558.97;5030938;28;20029;-80
2022/12/22 11:05:27;;;;;;;21.05;10.40;;;;;;;8.00;97.88;100559.00;5019735;28;20029;-80
2022/12/22 11:07:53;;;;;;;18.52;9.70;;;;;;;7.99;97.97;100571.09;5014680;28;20021;-80
2022/12/22 11:10:26;;;;;;;20.52;10.52;;;;;;;8.00;97.95;100575.41;5024127;28;20029;-80
2022/12/22 11:13:20;;;;;;;19.60;9.50;;;;;;;7.97;97.62;100575.47;5026263;28;20477;-80
2022/12/22 11:16:00;;;;;;;19.23;8.68;;;;;;;7.94;97.36;100579.84;5029136;28;20029;-80
2022/12/22 11:18:25;;;;;;;19.92;8.85;;;;;;;7.88;97.25;100579.09;5012979;28;20504;-80
2022/12/22 11:21:14;;;;;;;20.38;9.05;;;;;;;7.87;97.45;100577.38;5025149;28;20077;-80
2022/12/22 11:24:01;;;;;;;21.33;9.88;;;;;;;7.87;97.42;100585.13;5026477;28;20118;-80
2022/12/22 11:26:52;;;;;;;22.25;9.93;;;;;;;7.91;97.78;100588.53;5026917;28;20439;-80
2022/12/22 11:29:39;;;;;;;21.90;10.32;;;;;;;7.94;97.82;100585.03;5044679;28;20116;-79
2022/12/22 11:32:25;;;;;;;18.58;8.98;;;;;;;7.99;97.96;100583.19;5019896;28;20548;-80
2022/12/22 11:35:02;;;;;;;18.80;8.60;;;;;;;8.06;98.17;100582.19;5023072;28;20029;-80
2022/12/22 11:37:52;;;;;;;19.65;9.00;;;;;;;8.14;97.69;100587.22;5029363;28;20104;-80
2022/12/22 11:40:45;;;;;;;18.88;8.32;;;;;;;8.26;97.12;100594.75;5031935;28;20500;-79
2022/12/22 11:43:22;;;;;;;18.15;8.93;;;;;;;8.32;96.73;100594.63;5041585;28;20030;-80
2022/12/22 11:46:13;;;;;;;18.50;8.35;;;;;;;8.39;96.44;100595.38;5037206;28;20020;-80
2022/12/22 11:48:48;;;;;;;17.20;7.68;;;;;;;8.41;95.39;100600.50;5036093;28;20036;-80
2022/12/22 11:51:24;;;;;;;16.08;7.57;;;;;;;8.34;94.89;100613.63;5039836;28;20045;-80
2022/12/22 11:54:08;;;;;;;16.58;8.00;;;;;;;8.29;94.28;100607.66;5039215;28;20045;-80
2022/12/22 11:56:43;;;;;;;18.70;7.85;;;;;;;8.24;94.46;100613.81;5039383;28;20143;-80
2022/12/22 11:59:19;;;;;;;17.77;8.73;;;;;;;8.23;94.46;100607.75;5035000;28;20060;-80
2022/12/22 12:01:54;;;;;;;18.83;9.45;;;;;;;8.27;94.54;100604.25;5017480;28;20098;-80
2022/12/22 12:04:30;;;;;;;23.02;11.15;;;;;;;8.31;94.28;100603.31;5032841;28;20033;-80
2022/12/22 12:07:28;;;;;;;27.20;12.32;;;;;;;8.34;94.21;100613.63;5044683;28;20119;-80
2022/12/22 12:10:22;;;;;;;22.23;11.48;;;;;;;8.31;94.24;100605.88;5037083;28;21505;-80
2022/12/22 12:13:32;;;;;;;25.75;12.88;;;;;;;8.33;94.80;100598.94;5039934;28;20024;-80
2022/12/22 12:16:22;;;;;;;25.50;13.23;;;;;;;8.32;94.12;100592.06;5007584;28;20060;-80
2022/12/22 12:19:24;;;;;;;23.88;13.70;;;;;;;8.33;93.95;100595.47;5040523;28;20350;-80
2022/12/22 12:21:53;;;;;;;22.73;12.57;;;;;;;8.34;94.05;100581.63;5031209;28;20025;-80
2022/12/22 12:24:40;;;;;;;24.02;13.25;;;;;;;8.38;93.76;100579.81;5033235;28;20533;-80
2022/12/22 12:27:24;;;;;;;22.63;12.05;;;;;;;8.41;93.20;100572.00;5040778;28;20430;-80
2022/12/22 12:30:02;;;;;;;25.65;13.32;;;;;;;8.40;92.42;100570.28;5040877;28;20029;-80
2022/12/22 12:32:40;;;;;;;24.02;13.57;;;;;;;8.40;92.71;100570.28;5042328;28;20620;-80
2022/12/22 12:35:30;;;;;;;25.67;11.95;;;;;;;8.44;93.01;100567.63;5032406;28;20033;-80
2022/12/22 12:38:04;;;;;;;25.60;11.75;;;;;;;8.44;92.05;100564.16;5034074;28;20044;-80
2022/12/22 12:40:45;;;;;;;20.20;11.00;;;;;;;8.43;92.06;100557.25;5002313;28;20322;-80
2022/12/22 12:43:12;;;;;;;21.25;10.95;;;;;;;8.40;91.51;100557.31;5022646;28;20033;-80
2022/12/22 12:45:43;;;;;;;21.77;11.38;;;;;;;8.39;90.86;100555.63;5031305;28;20045;-80
2022/12/22 12:48:20;;;;;;;24.10;10.40;;;;;;;8.37;91.31;100549.63;5030228;28;20025;-80
2022/12/22 12:50:52;;;;;;;18.73;9.63;;;;;;;8.34;90.69;100556.59;5022928;28;20026;-80
2022/12/22 12:53:21;;;;;;;20.42;9.65;;;;;;;8.31;90.70;100548.88;5026348;28;20025;-80
2022/12/22 12:55:49;;;;;;;18.38;9.57;;;;;;;8.32;91.03;100549.72;5022752;28;20060;-80
2022/12/22 12:58:34;;;;;;;17.48;9.38;;;;;;;8.35;91.33;100560.00;5019876;28;20022;-80
2022/12/22 13:01:01;;;;;;;17.23;9.10;;;;;;;8.34;90.61;100554.00;5016005;28;20040;-80
2022/12/22 13:03:26;;;;;;;18.13;9.27;;;;;;;8.36;90.63;100559.13;5026545;28;20432;-80
2022/12/22 13:05:57;;;;;;;16.67;9.00;;;;;;;8.35;90.74;100560.00;5026944;28;20110;-80
2022/12/22 13:08:51;;;;;;;16.10;8.98;;;;;;;8.37;90.49;100567.78;5031307;28;20656;-79
2022/12/22 13:11:19;;;;;;;16.02;8.35;;;;;;;8.34;90.76;100560.91;5027520;28;20033;-80
2022/12/22 13:13:46;;;;;;;13.65;8.23;;;;;;;8.33;90.65;100561.78;5021975;28;20026;-80
2022/12/22 13:16:14;;;;;;;18.17;9.25;;;;;;;8.33;90.75;100549.69;5029908;28;20027;-80
2022/12/22 13:18:46;;;;;;;16.00;8.93;;;;;;;8.37;90.69;100549.63;5024994;28;20025;-80
2022/12/22 13:21:15;;;;;;;15.73;9.55;;;;;;;8.37;90.68;100557.41;5017935;28;20025;-80
2022/12/22 13:23:44;;;;;;;17.50;9.57;;;;;;;8.39;90.94;100558.19;5019720;28;20029;-80
2022/12/22 13:26:40;;;;;;;15.32;9.35;;;;;;;8.42;90.96;100546.06;5026167;28;20050;-80
2022/12/22 13:29:05;;;;;;;17.63;9.10;;;;;;;8.45;90.76;100552.91;5023504;28;20045;-80
2022/12/22 13:31:46;;;;;;;16.95;9.50;;;;;;;8.47;90.94;100559.75;5029802;28;20459;-80
2022/12/22 13:34:42;;;;;;;18.17;9.52;;;;;;;8.46;91.20;100552.84;5019838;28;20037;-80
2022/12/22 13:37:27;;;;;;;19.42;9.68;;;;;;;8.42;91.07;100561.59;5043444;28;20033;-80
2022/12/22 13:40:10;;;;;;;17.85;9.65;;;;;;;8.40;90.87;100557.31;5028331;28;20053;-80
2022/12/22 13:42:41;;;;;;;17.45;9.70;;;;;;;8.37;91.28;100557.41;5027434;28;20105;-80
2022/12/22 13:45:17;;;;;;;;;;;;;;;8.38;92.30;100559.09;5032951;28;20056;-80
2022/12/22 13:47:45;;;;;;;16.60;9.02;;;;;;;8.33;91.57;100557.47;5032292;28;19980;-80
2022/12/22 13:50:25;;;;;;;17.88;9.23;;;;;;;8.32;91.49;100545.41;5036258;28;20051;-79
2022/12/22 13:52:53;;;;;;;19.17;9.95;;;;;;;8.35;91.38;100544.47;5020211;28;20030;-80
2022/12/22 13:55:24;;;;;;;18.30;9.68;;;;;;;8.34;91.49;100528.06;5029179;28;20044;-79
2022/12/22 13:57:52;;;;;;;14.35;8.65;;;;;;;8.37;91.02;100536.69;5029138;28;20464;-79
2022/12/22 14:00:23;;;;;;;15.70;8.98;;;;;;;8.37;90.02;100541.84;5029553;28;20057;-79
2022/12/22 14:02:49;;;;;;;15.45;8.60;;;;;;;8.37;90.26;100531.50;5025221;28;20040;-79
2022/12/22 14:05:14;;;;;;;13.85;7.72;;;;;;;8.35;90.17;100532.38;5024498;28;20387;-80
2022/12/22 14:07:56;;;;;;;14.48;8.73;;;;;;;8.35;90.07;100527.19;5027794;28;20083;-80
2022/12/22 14:10:26;;;;;;;16.02;8.35;;;;;;;8.34;89.79;100522.88;5030900;28;20056;-80
2022/12/22 14:12:52;;;;;;;12.98;7.40;;;;;;;8.34;89.78;100522.88;5024616;28;20083;-80
2022/12/22 14:15:18;;;;;;;13.93;7.03;;;;;;;8.34;89.81;100527.19;5027269;28;20029;-80
2022/12/22 14:17:44;;;;;;;13.90;7.13;;;;;;;8.32;89.93;100524.66;5028935;28;20428;-80
2022/12/22 14:20:27;;;;;;;12.77;6.90;;;;;;;8.32;89.56;100523.78;5068637;28;20447;-78
2022/12/22 14:23:02;;;;;;;13.57;7.65;;;;;;;8.31;89.97;100525.53;5077701;28;20086;-78
2022/12/22 14:25:32;;;;;;;13.45;7.55;;;;;;;8.29;89.77;100518.66;5063841;28;20036;-78
2022/12/22 14:27:58;;;;;;;12.90;7.57;;;;;;;8.28;90.26;100514.41;5054802;28;20021;-78
2022/12/22 14:30:30;;;;;;;13.50;7.35;;;;;;;8.27;90.96;100510.09;5050799;28;20033;-78
2022/12/22 14:32:56;;;;;;;;;;;;;;;8.31;91.56;100511.72;5052668;28;20039;-78
2022/12/22 14:35:21;;;;;;;11.75;6.45;;;;;;;8.26;90.98;100504.03;5055949;28;19995;-78
2022/12/22 14:37:49;;;;;;;12.70;7.35;;;;;;;8.23;91.05;100500.69;5058515;28;20123;-78
2022/12/22 14:40:40;;;;;;;11.65;7.07;;;;;;;8.19;91.43;100486.94;5050404;28;20056;-78
2022/12/22 14:43:15;;;;;;;12.50;7.10;;;;;;;8.16;91.64;100492.19;5054583;28;20021;-78
2022/12/22 14:45:40;;;;;;;12.95;7.25;;;;;;;8.12;91.87;100486.19;5051123;28;20038;-77
2022/12/22 14:48:07;;;;;;;12.15;7.05;;;;;;;8.10;92.51;100476.75;5047165;28;20104;-77
2022/12/22 14:50:34;;;;;;;11.40;6.93;;;;;;;8.09;92.74;100477.63;5043938;28;20056;-78
2022/12/22 14:53:02;;;;;;;11.10;6.30;;;;;;;8.07;93.15;100469.91;5047707;28;20033;-78
2022/12/22 14:55:31;;;;;;;12.48;6.28;;;;;;;8.03;93.10;100476.88;5050700;28;20037;-78
2022/12/22 14:58:13;;;;;;;11.85;6.25;;;;;;;8.01;93.49;100483.84;5049803;28;20082;-78
2022/12/22 15:00:43;;;;;;;10.23;5.97;;;;;;;7.97;93.43;100474.44;5047791;28;20040;-78
2022/12/22 15:03:24;;;;;;;11.70;6.50;;;;;;;7.96;93.83;100472.72;5047454;28;20025;-77
2022/12/22 15:05:49;;;;;;;10.30;6.38;;;;;;;7.94;94.01;100469.31;5046834;28;20043;-77
2022/12/22 15:08:38;;;;;;;11.35;6.55;;;;;;;7.95;94.12;100467.56;5047421;28;20029;-77
2022/12/22 15:11:12;;;;;;;11.13;6.43;;;;;;;7.92;94.48;100478.00;5048007;28;20373;-78
2022/12/22 15:13:38;;;;;;;10.75;6.32;;;;;;;7.89;94.67;100474.59;5049469;28;20036;-78